sensor_id;sensor_type;location;lat;lon;timestamp;pressure;altitude;pressure_sealevel;temperature;humidity
77381;BME280;66439;50.106;10.996;2023-07-20T00:01:23;98379.88;;;20.21;61.58
77381;BME280;66439;50.106;10.996;2023-07-20T00:03:26;98379.91;;;20.19;61.61
77381;BME280;66439;50.106;10.996;2023-07-20T00:05:29;98380.30;;;20.19;61.52
77381;BME280;66439;50.106;10.996;2023-07-20T00:10:03;98372.24;;;20.17;61.46
77381;BME280;66439;50.106;10.996;2023-07-20T00:12:07;98372.98;;;20.16;61.45
77381;BME280;66439;50.106;10.996;2023-07-20T00:14:10;98369.38;;;20.16;61.60
77381;BME280;66439;50.106;10.996;2023-07-20T00:16:12;98367.76;;;20.17;61.53
77381;BME280;66439;50.106;10.996;2023-07-20T00:18:15;98373.89;;;20.20;61.48
77381;BME280;66439;50.106;10.996;2023-07-20T00:20:18;98370.21;;;20.20;61.59
77381;BME280;66439;50.106;10.996;2023-07-20T00:22:24;98368.65;;;20.20;61.57
77381;BME280;66439;50.106;10.996;2023-07-20T00:24:28;98367.30;;;20.19;61.56
77381;BME280;66439;50.106;10.996;2023-07-20T00:26:31;98369.93;;;20.20;61.71
77381;BME280;66439;50.106;10.996;2023-07-20T00:28:43;98365.75;;;20.17;61.92
77381;BME280;66439;50.106;10.996;2023-07-20T00:30:46;98366.15;;;20.13;61.74
77381;BME280;66439;50.106;10.996;2023-07-20T00:32:49;98367.00;;;20.12;61.87
77381;BME280;66439;50.106;10.996;2023-07-20T00:34:53;98364.76;;;20.10;62.02
77381;BME280;66439;50.106;10.996;2023-07-20T00:36:55;98362.89;;;20.07;62.02
77381;BME280;66439;50.106;10.996;2023-07-20T00:39:00;98362.48;;;20.04;61.98
77381;BME280;66439;50.106;10.996;2023-07-20T00:41:03;98362.30;;;20.02;61.84
77381;BME280;66439;50.106;10.996;2023-07-20T00:43:06;98362.06;;;20.00;61.98
77381;BME280;66439;50.106;10.996;2023-07-20T00:45:09;98364.52;;;19.98;61.99
77381;BME280;66439;50.106;10.996;2023-07-20T00:47:14;98362.27;;;19.96;62.01
77381;BME280;66439;50.106;10.996;2023-07-20T00:49:17;98366.30;;;19.93;62.14
77381;BME280;66439;50.106;10.996;2023-07-20T00:51:25;98369.17;;;19.89;62.29
77381;BME280;66439;50.106;10.996;2023-07-20T00:53:28;98369.27;;;19.89;62.10
77381;BME280;66439;50.106;10.996;2023-07-20T00:55:31;98366.69;;;19.89;62.15
77381;BME280;66439;50.106;10.996;2023-07-20T00:57:35;98363.30;;;19.90;62.13
77381;BME280;66439;50.106;10.996;2023-07-20T00:59:37;98364.48;;;19.90;62.00
77381;BME280;66439;50.106;10.996;2023-07-20T01:01:41;98364.86;;;19.90;61.95
77381;BME280;66439;50.106;10.996;2023-07-20T01:03:44;98360.88;;;19.90;61.86
77381;BME280;66439;50.106;10.996;2023-07-20T01:06:09;98362.28;;;19.91;61.79
77381;BME280;66439;50.106;10.996;2023-07-20T01:08:43;98364.53;;;19.89;61.77
77381;BME280;66439;50.106;10.996;2023-07-20T01:10:52;98362.98;;;19.86;61.95
77381;BME280;66439;50.106;10.996;2023-07-20T01:12:57;98365.61;;;19.85;61.84
77381;BME280;66439;50.106;10.996;2023-07-20T01:15:01;98357.93;;;19.83;61.84
77381;BME280;66439;50.106;10.996;2023-07-20T01:17:04;98356.52;;;19.82;61.89
77381;BME280;66439;50.106;10.996;2023-07-20T01:19:08;98355.17;;;19.81;62.07
77381;BME280;66439;50.106;10.996;2023-07-20T01:21:22;98356.86;;;19.80;62.08
77381;BME280;66439;50.106;10.996;2023-07-20T01:28:37;98352.48;;;19.66;62.42
77381;BME280;66439;50.106;10.996;2023-07-20T01:31:20;98351.23;;;19.66;62.58
77381;BME280;66439;50.106;10.996;2023-07-20T01:33:27;98353.19;;;19.66;62.61
77381;BME280;66439;50.106;10.996;2023-07-20T01:35:34;98354.18;;;19.68;62.29
77381;BME280;66439;50.106;10.996;2023-07-20T01:40:14;98355.73;;;19.71;62.05
77381;BME280;66439;50.106;10.996;2023-07-20T01:42:17;98357.20;;;19.71;62.15
77381;BME280;66439;50.106;10.996;2023-07-20T01:44:21;98359.41;;;19.71;62.24
77381;BME280;66439;50.106;10.996;2023-07-20T01:46:26;98354.91;;;19.70;62.11
77381;BME280;66439;50.106;10.996;2023-07-20T01:48:31;98352.20;;;19.69;61.95
77381;BME280;66439;50.106;10.996;2023-07-20T01:50:34;98357.15;;;19.67;62.14
77381;BME280;66439;50.106;10.996;2023-07-20T01:52:38;98360.27;;;19.67;62.31
77381;BME280;66439;50.106;10.996;2023-07-20T01:54:46;98362.71;;;19.65;62.55
77381;BME280;66439;50.106;10.996;2023-07-20T01:56:48;98360.66;;;19.63;62.32
77381;BME280;66439;50.106;10.996;2023-07-20T01:58:51;98358.23;;;19.63;62.41
77381;BME280;66439;50.106;10.996;2023-07-20T02:00:53;98360.19;;;19.62;62.38
77381;BME280;66439;50.106;10.996;2023-07-20T02:02:57;98356.80;;;19.59;62.52
77381;BME280;66439;50.106;10.996;2023-07-20T02:05:00;98358.13;;;19.59;62.63
77381;BME280;66439;50.106;10.996;2023-07-20T02:07:02;98355.36;;;19.57;62.72
77381;BME280;66439;50.106;10.996;2023-07-20T02:09:06;98360.96;;;19.57;62.75
77381;BME280;66439;50.106;10.996;2023-07-20T02:11:14;98367.39;;;19.57;62.72
77381;BME280;66439;50.106;10.996;2023-07-20T02:13:17;98366.02;;;19.55;62.71
77381;BME280;66439;50.106;10.996;2023-07-20T02:15:20;98362.64;;;19.53;62.91
77381;BME280;66439;50.106;10.996;2023-07-20T02:17:23;98363.33;;;19.52;62.96
77381;BME280;66439;50.106;10.996;2023-07-20T02:19:28;98366.11;;;19.50;62.93
77381;BME280;66439;50.106;10.996;2023-07-20T02:21:30;98369.63;;;19.47;63.11
77381;BME280;66439;50.106;10.996;2023-07-20T02:23:33;98370.84;;;19.45;63.01
77381;BME280;66439;50.106;10.996;2023-07-20T02:25:40;98371.21;;;19.44;63.18
77381;BME280;66439;50.106;10.996;2023-07-20T02:27:43;98369.37;;;19.44;63.06
77381;BME280;66439;50.106;10.996;2023-07-20T02:29:45;98367.99;;;19.42;63.20
77381;BME280;66439;50.106;10.996;2023-07-20T02:31:48;98371.00;;;19.41;63.18
77381;BME280;66439;50.106;10.996;2023-07-20T02:33:52;98373.27;;;19.41;63.14
77381;BME280;66439;50.106;10.996;2023-07-20T02:35:54;98368.16;;;19.38;63.23
77381;BME280;66439;50.106;10.996;2023-07-20T02:37:58;98373.11;;;19.38;63.12
77381;BME280;66439;50.106;10.996;2023-07-20T02:40:01;98371.75;;;19.36;63.35
77381;BME280;66439;50.106;10.996;2023-07-20T02:42:05;98374.73;;;19.35;63.31
77381;BME280;66439;50.106;10.996;2023-07-20T02:44:10;98373.48;;;19.36;63.28
77381;BME280;66439;50.106;10.996;2023-07-20T02:46:12;98379.98;;;19.36;63.30
77381;BME280;66439;50.106;10.996;2023-07-20T02:48:15;98374.48;;;19.36;63.51
77381;BME280;66439;50.106;10.996;2023-07-20T02:50:18;98383.46;;;19.33;63.43
77381;BME280;66439;50.106;10.996;2023-07-20T02:52:21;98383.02;;;19.33;63.39
77381;BME280;66439;50.106;10.996;2023-07-20T02:54:26;98382.54;;;19.34;63.12
77381;BME280;66439;50.106;10.996;2023-07-20T02:56:30;98388.02;;;19.35;62.92
77381;BME280;66439;50.106;10.996;2023-07-20T02:58:34;98388.20;;;19.37;62.84
77381;BME280;66439;50.106;10.996;2023-07-20T03:00:39;98393.65;;;19.38;63.00
77381;BME280;66439;50.106;10.996;2023-07-20T03:02:46;98395.44;;;19.35;63.04
77381;BME280;66439;50.106;10.996;2023-07-20T03:04:58;98397.56;;;19.33;63.18
77381;BME280;66439;50.106;10.996;2023-07-20T03:07:01;98396.83;;;19.31;63.06
77381;BME280;66439;50.106;10.996;2023-07-20T03:09:06;98396.66;;;19.30;63.12
77381;BME280;66439;50.106;10.996;2023-07-20T03:11:16;98400.05;;;19.29;63.08
77381;BME280;66439;50.106;10.996;2023-07-20T03:13:18;98401.14;;;19.26;63.19
77381;BME280;66439;50.106;10.996;2023-07-20T03:15:22;98399.58;;;19.23;63.21
77381;BME280;66439;50.106;10.996;2023-07-20T03:17:25;98403.84;;;19.20;63.04
77381;BME280;66439;50.106;10.996;2023-07-20T03:19:28;98405.83;;;19.16;63.19
77381;BME280;66439;50.106;10.996;2023-07-20T03:21:33;98407.14;;;19.14;63.15
77381;BME280;66439;50.106;10.996;2023-07-20T03:23:37;98412.73;;;19.12;63.21
77381;BME280;66439;50.106;10.996;2023-07-20T03:25:41;98413.55;;;19.10;63.08
77381;BME280;66439;50.106;10.996;2023-07-20T03:27:43;98411.60;;;19.10;63.10
77381;BME280;66439;50.106;10.996;2023-07-20T03:29:46;98414.42;;;19.11;63.22
77381;BME280;66439;50.106;10.996;2023-07-20T03:31:49;98409.95;;;19.11;63.23
77381;BME280;66439;50.106;10.996;2023-07-20T03:33:53;98408.87;;;19.11;63.14
77381;BME280;66439;50.106;10.996;2023-07-20T03:35:56;98407.48;;;19.13;63.14
77381;BME280;66439;50.106;10.996;2023-07-20T03:37:58;98411.95;;;19.15;62.91
77381;BME280;66439;50.106;10.996;2023-07-20T03:40:02;98412.89;;;19.16;62.83
77381;BME280;66439;50.106;10.996;2023-07-20T03:42:05;98413.08;;;19.15;62.91
77381;BME280;66439;50.106;10.996;2023-07-20T03:44:09;98415.09;;;19.12;62.76
77381;BME280;66439;50.106;10.996;2023-07-20T03:46:11;98415.06;;;19.10;62.73
77381;BME280;66439;50.106;10.996;2023-07-20T03:48:15;98423.80;;;19.08;62.80
77381;BME280;66439;50.106;10.996;2023-07-20T03:50:20;98423.29;;;19.06;62.69
77381;BME280;66439;50.106;10.996;2023-07-20T03:52:22;98428.15;;;19.04;62.73
77381;BME280;66439;50.106;10.996;2023-07-20T03:54:27;98428.90;;;19.03;62.57
77381;BME280;66439;50.106;10.996;2023-07-20T03:56:29;98429.63;;;19.01;62.53
77381;BME280;66439;50.106;10.996;2023-07-20T03:58:37;98432.08;;;19.00;62.62
77381;BME280;66439;50.106;10.996;2023-07-20T04:00:48;98435.31;;;18.97;62.79
77381;BME280;66439;50.106;10.996;2023-07-20T04:02:51;98432.70;;;18.95;62.64
77381;BME280;66439;50.106;10.996;2023-07-20T04:04:55;98435.13;;;18.94;62.38
77381;BME280;66439;50.106;10.996;2023-07-20T04:06:58;98436.38;;;18.94;62.48
77381;BME280;66439;50.106;10.996;2023-07-20T04:09:10;98437.80;;;18.97;62.33
77381;BME280;66439;50.106;10.996;2023-07-20T04:11:14;98438.71;;;19.01;62.33
77381;BME280;66439;50.106;10.996;2023-07-20T04:13:20;98439.81;;;19.02;62.41
77381;BME280;66439;50.106;10.996;2023-07-20T04:15:22;98442.91;;;19.02;62.39
77381;BME280;66439;50.106;10.996;2023-07-20T04:17:26;98443.08;;;19.02;62.53
77381;BME280;66439;50.106;10.996;2023-07-20T04:19:29;98447.48;;;19.03;62.27
77381;BME280;66439;50.106;10.996;2023-07-20T04:21:31;98448.15;;;19.04;62.43
77381;BME280;66439;50.106;10.996;2023-07-20T04:23:34;98450.46;;;19.04;62.24
77381;BME280;66439;50.106;10.996;2023-07-20T04:25:39;98452.34;;;19.06;61.82
77381;BME280;66439;50.106;10.996;2023-07-20T04:27:44;98452.52;;;19.09;61.85
77381;BME280;66439;50.106;10.996;2023-07-20T04:29:47;98453.06;;;19.11;61.62
77381;BME280;66439;50.106;10.996;2023-07-20T04:31:50;98452.05;;;19.11;61.55
77381;BME280;66439;50.106;10.996;2023-07-20T04:33:53;98455.34;;;19.12;61.62
77381;BME280;66439;50.106;10.996;2023-07-20T04:35:55;98454.95;;;19.12;61.22
77381;BME280;66439;50.106;10.996;2023-07-20T04:38:05;98457.84;;;19.13;61.20
77381;BME280;66439;50.106;10.996;2023-07-20T04:40:08;98460.94;;;19.15;61.00
77381;BME280;66439;50.106;10.996;2023-07-20T04:42:11;98465.55;;;19.17;60.91
77381;BME280;66439;50.106;10.996;2023-07-20T04:44:16;98466.02;;;19.18;60.91
77381;BME280;66439;50.106;10.996;2023-07-20T04:46:20;98463.81;;;19.20;60.95
77381;BME280;66439;50.106;10.996;2023-07-20T04:48:26;98463.65;;;19.22;60.86
77381;BME280;66439;50.106;10.996;2023-07-20T04:50:30;98464.06;;;19.25;60.66
77381;BME280;66439;50.106;10.996;2023-07-20T04:52:35;98465.04;;;19.25;60.61
77381;BME280;66439;50.106;10.996;2023-07-20T04:54:46;98466.08;;;19.26;60.66
77381;BME280;66439;50.106;10.996;2023-07-20T04:56:49;98467.55;;;19.27;60.62
77381;BME280;66439;50.106;10.996;2023-07-20T04:58:57;98472.29;;;19.28;60.75
77381;BME280;66439;50.106;10.996;2023-07-20T05:00:59;98469.95;;;19.29;60.55
77381;BME280;66439;50.106;10.996;2023-07-20T05:03:02;98469.21;;;19.31;60.58
77381;BME280;66439;50.106;10.996;2023-07-20T05:05:10;98471.42;;;19.34;60.43
77381;BME280;66439;50.106;10.996;2023-07-20T05:07:13;98471.91;;;19.37;60.27
77381;BME280;66439;50.106;10.996;2023-07-20T05:09:16;98475.48;;;19.42;60.12
77381;BME280;66439;50.106;10.996;2023-07-20T05:11:19;98472.20;;;19.46;59.99
77381;BME280;66439;50.106;10.996;2023-07-20T05:13:28;98478.64;;;19.51;59.95
77381;BME280;66439;50.106;10.996;2023-07-20T05:15:33;98476.84;;;19.53;59.78
77381;BME280;66439;50.106;10.996;2023-07-20T05:17:39;98479.23;;;19.55;59.74
77381;BME280;66439;50.106;10.996;2023-07-20T05:19:42;98476.64;;;19.58;59.51
77381;BME280;66439;50.106;10.996;2023-07-20T05:21:46;98473.13;;;19.60;59.47
77381;BME280;66439;50.106;10.996;2023-07-20T05:23:49;98469.66;;;19.62;59.24
77381;BME280;66439;50.106;10.996;2023-07-20T05:25:59;98469.11;;;19.62;59.30
77381;BME280;66439;50.106;10.996;2023-07-20T05:28:02;98467.77;;;19.64;59.11
77381;BME280;66439;50.106;10.996;2023-07-20T05:30:05;98468.41;;;19.65;58.97
77381;BME280;66439;50.106;10.996;2023-07-20T05:32:09;98472.64;;;19.69;58.96
77381;BME280;66439;50.106;10.996;2023-07-20T05:34:13;98471.81;;;19.72;58.78
77381;BME280;66439;50.106;10.996;2023-07-20T05:36:20;98470.03;;;19.75;58.56
77381;BME280;66439;50.106;10.996;2023-07-20T05:38:23;98470.88;;;19.78;58.56
77381;BME280;66439;50.106;10.996;2023-07-20T05:40:26;98468.89;;;19.80;58.36
77381;BME280;66439;50.106;10.996;2023-07-20T05:42:29;98467.21;;;19.82;58.15
77381;BME280;66439;50.106;10.996;2023-07-20T05:44:32;98468.14;;;19.83;57.88
77381;BME280;66439;50.106;10.996;2023-07-20T05:46:36;98466.46;;;19.83;58.14
77381;BME280;66439;50.106;10.996;2023-07-20T05:48:58;98470.29;;;19.86;57.71
77381;BME280;66439;50.106;10.996;2023-07-20T05:51:01;98470.66;;;19.90;57.34
77381;BME280;66439;50.106;10.996;2023-07-20T05:53:04;98471.61;;;19.88;57.02
77381;BME280;66439;50.106;10.996;2023-07-20T05:55:08;98468.80;;;19.91;57.05
77381;BME280;66439;50.106;10.996;2023-07-20T05:57:13;98471.08;;;19.97;56.61
77381;BME280;66439;50.106;10.996;2023-07-20T05:59:17;98478.65;;;19.99;56.38
77381;BME280;66439;50.106;10.996;2023-07-20T06:01:21;98473.19;;;19.98;56.33
77381;BME280;66439;50.106;10.996;2023-07-20T06:03:24;98474.30;;;20.00;56.46
77381;BME280;66439;50.106;10.996;2023-07-20T06:05:29;98473.14;;;20.03;56.33
77381;BME280;66439;50.106;10.996;2023-07-20T06:07:36;98468.98;;;20.06;56.19
77381;BME280;66439;50.106;10.996;2023-07-20T06:09:40;98473.00;;;20.08;56.19
77381;BME280;66439;50.106;10.996;2023-07-20T06:11:43;98470.19;;;20.07;55.98
77381;BME280;66439;50.106;10.996;2023-07-20T06:13:46;98468.63;;;20.08;56.06
77381;BME280;66439;50.106;10.996;2023-07-20T06:15:49;98468.39;;;20.11;55.93
77381;BME280;66439;50.106;10.996;2023-07-20T06:17:55;98471.27;;;20.12;55.63
77381;BME280;66439;50.106;10.996;2023-07-20T06:19:59;98465.61;;;20.10;55.35
77381;BME280;66439;50.106;10.996;2023-07-20T06:22:02;98466.48;;;20.08;54.99
77381;BME280;66439;50.106;10.996;2023-07-20T06:24:05;98465.42;;;20.07;55.08
77381;BME280;66439;50.106;10.996;2023-07-20T06:26:10;98468.96;;;20.05;54.76
77381;BME280;66439;50.106;10.996;2023-07-20T06:28:13;98468.27;;;20.02;55.11
77381;BME280;66439;50.106;10.996;2023-07-20T06:30:16;98472.26;;;20.05;55.32
77381;BME280;66439;50.106;10.996;2023-07-20T06:32:19;98472.41;;;20.08;54.77
77381;BME280;66439;50.106;10.996;2023-07-20T06:34:21;98473.07;;;20.09;54.85
77381;BME280;66439;50.106;10.996;2023-07-20T06:36:25;98470.92;;;20.10;54.58
77381;BME280;66439;50.106;10.996;2023-07-20T06:38:29;98473.52;;;20.11;54.56
77381;BME280;66439;50.106;10.996;2023-07-20T06:40:35;98473.52;;;20.11;54.54
77381;BME280;66439;50.106;10.996;2023-07-20T06:42:38;98471.95;;;20.11;54.53
77381;BME280;66439;50.106;10.996;2023-07-20T06:44:43;98472.98;;;20.11;54.52
77381;BME280;66439;50.106;10.996;2023-07-20T06:46:51;98473.02;;;20.14;54.68
77381;BME280;66439;50.106;10.996;2023-07-20T06:48:56;98473.06;;;20.18;54.26
77381;BME280;66439;50.106;10.996;2023-07-20T06:51:04;98473.38;;;20.17;54.01
77381;BME280;66439;50.106;10.996;2023-07-20T06:53:09;98468.09;;;20.18;54.00
77381;BME280;66439;50.106;10.996;2023-07-20T06:55:11;98467.00;;;20.20;53.56
77381;BME280;66439;50.106;10.996;2023-07-20T06:57:16;98471.45;;;20.22;53.34
77381;BME280;66439;50.106;10.996;2023-07-20T06:59:21;98469.37;;;20.24;53.23
77381;BME280;66439;50.106;10.996;2023-07-20T07:01:25;98468.63;;;20.21;53.07
77381;BME280;66439;50.106;10.996;2023-07-20T07:03:30;98467.30;;;20.26;52.94
77381;BME280;66439;50.106;10.996;2023-07-20T07:05:36;98468.58;;;20.31;52.96
77381;BME280;66439;50.106;10.996;2023-07-20T07:07:40;98471.51;;;20.36;52.31
77381;BME280;66439;50.106;10.996;2023-07-20T07:09:43;98469.99;;;20.40;51.98
77381;BME280;66439;50.106;10.996;2023-07-20T07:11:47;98464.18;;;20.42;51.10
77381;BME280;66439;50.106;10.996;2023-07-20T07:13:50;98468.20;;;20.40;51.52
77381;BME280;66439;50.106;10.996;2023-07-20T07:16:00;98463.44;;;20.38;50.89
77381;BME280;66439;50.106;10.996;2023-07-20T07:18:04;98464.92;;;20.36;51.03
77381;BME280;66439;50.106;10.996;2023-07-20T07:20:10;98464.80;;;20.36;50.73
77381;BME280;66439;50.106;10.996;2023-07-20T07:22:23;98464.85;;;20.34;50.44
77381;BME280;66439;50.106;10.996;2023-07-20T07:24:28;98465.79;;;20.36;50.43
77381;BME280;66439;50.106;10.996;2023-07-20T07:26:37;98461.95;;;20.40;50.27
77381;BME280;66439;50.106;10.996;2023-07-20T07:28:45;98464.27;;;20.41;50.44
77381;BME280;66439;50.106;10.996;2023-07-20T07:30:54;98464.22;;;20.41;50.39
77381;BME280;66439;50.106;10.996;2023-07-20T07:32:58;98461.50;;;20.45;50.64
77381;BME280;66439;50.106;10.996;2023-07-20T07:35:01;98462.11;;;20.49;50.63
77381;BME280;66439;50.106;10.996;2023-07-20T07:40:01;98459.81;;;20.65;50.59
77381;BME280;66439;50.106;10.996;2023-07-20T07:42:05;98462.29;;;20.70;50.56
77381;BME280;66439;50.106;10.996;2023-07-20T07:44:09;98460.11;;;20.73;50.19
77381;BME280;66439;50.106;10.996;2023-07-20T07:46:14;98461.66;;;20.77;50.21
77381;BME280;66439;50.106;10.996;2023-07-20T07:48:21;98463.46;;;20.79;49.51
77381;BME280;66439;50.106;10.996;2023-07-20T07:50:25;98467.93;;;20.78;49.39
77381;BME280;66439;50.106;10.996;2023-07-20T07:52:30;98466.88;;;20.80;49.65
77381;BME280;66439;50.106;10.996;2023-07-20T07:54:32;98468.76;;;20.84;49.34
77381;BME280;66439;50.106;10.996;2023-07-20T07:56:35;98467.29;;;20.84;49.04
77381;BME280;66439;50.106;10.996;2023-07-20T07:58:43;98470.86;;;20.84;48.86
77381;BME280;66439;50.106;10.996;2023-07-20T08:00:47;98465.40;;;20.84;49.02
77381;BME280;66439;50.106;10.996;2023-07-20T08:02:51;98466.20;;;20.88;49.48
77381;BME280;66439;50.106;10.996;2023-07-20T08:04:55;98467.52;;;20.97;49.79
77381;BME280;66439;50.106;10.996;2023-07-20T08:07:06;98471.48;;;21.05;49.87
77381;BME280;66439;50.106;10.996;2023-07-20T08:09:37;98469.04;;;21.10;49.62
77381;BME280;66439;50.106;10.996;2023-07-20T08:11:40;98471.84;;;21.14;49.30
77381;BME280;66439;50.106;10.996;2023-07-20T08:13:44;98475.05;;;21.12;48.56
77381;BME280;66439;50.106;10.996;2023-07-20T08:15:49;98478.43;;;21.10;48.69
77381;BME280;66439;50.106;10.996;2023-07-20T08:17:55;98477.48;;;21.12;48.51
77381;BME280;66439;50.106;10.996;2023-07-20T08:19:59;98477.88;;;21.12;47.96
77381;BME280;66439;50.106;10.996;2023-07-20T08:22:03;98472.41;;;21.06;47.71
77381;BME280;66439;50.106;10.996;2023-07-20T08:24:06;98475.02;;;21.02;47.69
77381;BME280;66439;50.106;10.996;2023-07-20T08:26:08;98476.17;;;21.04;48.27
77381;BME280;66439;50.106;10.996;2023-07-20T08:28:15;98471.69;;;21.09;48.16
77381;BME280;66439;50.106;10.996;2023-07-20T08:30:21;98471.48;;;21.12;48.31
77381;BME280;66439;50.106;10.996;2023-07-20T08:32:25;98471.95;;;21.15;48.15
77381;BME280;66439;50.106;10.996;2023-07-20T08:34:28;98473.29;;;21.20;48.13
77381;BME280;66439;50.106;10.996;2023-07-20T08:36:33;98477.81;;;21.24;48.10
77381;BME280;66439;50.106;10.996;2023-07-20T08:38:36;98478.69;;;21.18;47.70
77381;BME280;66439;50.106;10.996;2023-07-20T08:40:42;98474.94;;;21.09;47.77
77381;BME280;66439;50.106;10.996;2023-07-20T08:42:48;98476.40;;;21.10;47.89
77381;BME280;66439;50.106;10.996;2023-07-20T08:44:52;98474.55;;;21.16;47.76
77381;BME280;66439;50.106;10.996;2023-07-20T08:46:57;98473.61;;;21.28;47.76
77381;BME280;66439;50.106;10.996;2023-07-20T08:49:01;98470.88;;;21.39;47.51
77381;BME280;66439;50.106;10.996;2023-07-20T08:51:10;98469.98;;;21.50;47.28
77381;BME280;66439;50.106;10.996;2023-07-20T08:53:15;98474.05;;;21.59;46.84
77381;BME280;66439;50.106;10.996;2023-07-20T08:55:20;98475.67;;;21.61;46.50
77381;BME280;66439;50.106;10.996;2023-07-20T08:57:27;98469.39;;;21.66;46.53
77381;BME280;66439;50.106;10.996;2023-07-20T08:59:34;98476.19;;;21.73;46.39
77381;BME280;66439;50.106;10.996;2023-07-20T09:01:41;98467.64;;;21.81;46.48
77381;BME280;66439;50.106;10.996;2023-07-20T09:03:45;98466.89;;;21.92;46.65
77381;BME280;66439;50.106;10.996;2023-07-20T09:05:49;98473.30;;;21.99;46.36
77381;BME280;66439;50.106;10.996;2023-07-20T09:07:52;98471.52;;;22.02;46.26
77381;BME280;66439;50.106;10.996;2023-07-20T09:09:58;98474.27;;;22.05;45.91
77381;BME280;66439;50.106;10.996;2023-07-20T09:12:03;98473.88;;;22.07;45.63
77381;BME280;66439;50.106;10.996;2023-07-20T09:14:07;98471.66;;;22.07;45.33
77381;BME280;66439;50.106;10.996;2023-07-20T09:16:15;98476.56;;;22.03;44.43
77381;BME280;66439;50.106;10.996;2023-07-20T09:18:30;98474.44;;;21.98;44.40
77381;BME280;66439;50.106;10.996;2023-07-20T09:20:35;98473.30;;;21.90;44.55
77381;BME280;66439;50.106;10.996;2023-07-20T09:22:38;98468.89;;;21.90;45.44
77381;BME280;66439;50.106;10.996;2023-07-20T09:24:44;98471.66;;;21.95;45.56
77381;BME280;66439;50.106;10.996;2023-07-20T09:26:48;98477.45;;;22.05;45.92
77381;BME280;66439;50.106;10.996;2023-07-20T09:28:56;98466.73;;;22.16;45.57
77381;BME280;66439;50.106;10.996;2023-07-20T09:31:15;98466.10;;;22.28;45.88
77381;BME280;66439;50.106;10.996;2023-07-20T09:33:24;98471.95;;;22.41;45.64
77381;BME280;66439;50.106;10.996;2023-07-20T09:35:29;98467.46;;;22.49;45.45
77381;BME280;66439;50.106;10.996;2023-07-20T09:38:03;98471.70;;;22.53;45.07
77381;BME280;66439;50.106;10.996;2023-07-20T09:40:10;98478.11;;;22.54;43.97
77381;BME280;66439;50.106;10.996;2023-07-20T09:42:16;98481.52;;;22.55;44.22
77381;BME280;66439;50.106;10.996;2023-07-20T09:44:23;98478.27;;;22.55;44.22
77381;BME280;66439;50.106;10.996;2023-07-20T09:46:41;98480.60;;;22.55;44.43
77381;BME280;66439;50.106;10.996;2023-07-20T09:48:55;98478.05;;;22.57;44.33
77381;BME280;66439;50.106;10.996;2023-07-20T09:51:03;98483.70;;;22.58;44.03
77381;BME280;66439;50.106;10.996;2023-07-20T09:53:12;98483.80;;;22.55;43.71
77381;BME280;66439;50.106;10.996;2023-07-20T09:55:20;98478.30;;;22.50;43.47
77381;BME280;66439;50.106;10.996;2023-07-20T09:57:24;98481.33;;;22.45;43.56
77381;BME280;66439;50.106;10.996;2023-07-20T09:59:29;98480.79;;;22.43;43.43
77381;BME280;66439;50.106;10.996;2023-07-20T10:01:34;98483.15;;;22.40;43.23
77381;BME280;66439;50.106;10.996;2023-07-20T10:03:38;98478.63;;;22.35;43.20
77381;BME280;66439;50.106;10.996;2023-07-20T10:05:48;98479.23;;;22.32;43.48
77381;BME280;66439;50.106;10.996;2023-07-20T10:07:54;98479.70;;;22.30;43.08
77381;BME280;66439;50.106;10.996;2023-07-20T10:10:23;98479.37;;;22.26;43.38
77381;BME280;66439;50.106;10.996;2023-07-20T10:12:27;98480.34;;;22.27;43.66
77381;BME280;66439;50.106;10.996;2023-07-20T10:14:31;98477.43;;;22.29;43.65
77381;BME280;66439;50.106;10.996;2023-07-20T10:16:50;98473.01;;;22.35;43.52
77381;BME280;66439;50.106;10.996;2023-07-20T10:19:05;98469.19;;;22.42;44.00
77381;BME280;66439;50.106;10.996;2023-07-20T10:21:22;98466.33;;;22.48;43.54
77381;BME280;66439;50.106;10.996;2023-07-20T10:23:31;98464.42;;;22.46;43.81
77381;BME280;66439;50.106;10.996;2023-07-20T10:25:36;98462.98;;;22.47;43.74
77381;BME280;66439;50.106;10.996;2023-07-20T10:27:40;98465.36;;;22.48;43.78
77381;BME280;66439;50.106;10.996;2023-07-20T10:29:43;98458.92;;;22.51;43.70
77381;BME280;66439;50.106;10.996;2023-07-20T10:31:46;98461.36;;;22.55;43.78
77381;BME280;66439;50.106;10.996;2023-07-20T10:33:49;98462.90;;;22.63;43.69
77381;BME280;66439;50.106;10.996;2023-07-20T10:35:56;98461.73;;;22.68;43.44
77381;BME280;66439;50.106;10.996;2023-07-20T10:38:01;98458.31;;;22.71;43.49
77381;BME280;66439;50.106;10.996;2023-07-20T10:40:33;98449.97;;;22.74;43.69
77381;BME280;66439;50.106;10.996;2023-07-20T10:42:36;98452.09;;;22.77;43.49
77381;BME280;66439;50.106;10.996;2023-07-20T10:44:44;98454.95;;;22.75;43.47
77381;BME280;66439;50.106;10.996;2023-07-20T10:46:47;98453.05;;;22.72;43.51
77381;BME280;66439;50.106;10.996;2023-07-20T10:49:00;98451.41;;;22.68;43.26
77381;BME280;66439;50.106;10.996;2023-07-20T10:51:19;98452.55;;;22.65;43.44
77381;BME280;66439;50.106;10.996;2023-07-20T10:53:25;98454.39;;;22.60;43.41
77381;BME280;66439;50.106;10.996;2023-07-20T10:55:28;98454.11;;;22.58;43.60
77381;BME280;66439;50.106;10.996;2023-07-20T10:57:33;98455.80;;;22.58;43.65
77381;BME280;66439;50.106;10.996;2023-07-20T10:59:37;98457.95;;;22.56;43.31
77381;BME280;66439;50.106;10.996;2023-07-20T11:01:45;98452.85;;;22.56;43.13
77381;BME280;66439;50.106;10.996;2023-07-20T11:03:50;98449.76;;;22.52;43.44
77381;BME280;66439;50.106;10.996;2023-07-20T11:05:58;98450.04;;;22.51;43.74
77381;BME280;66439;50.106;10.996;2023-07-20T11:08:38;98445.41;;;22.49;43.45
77381;BME280;66439;50.106;10.996;2023-07-20T11:10:43;98448.27;;;22.45;43.14